Airfield :
LOGIN :

Register | Disclaimer

   EN    FR    IT 

 










Legend :    VFR   Marginal VFR   IFR   Intensive IFR   Very Intensive IFR
Visi :
Ceiling :
>= 8 km
>= 3000ft
5 to 8 km
1000 to 3000 ft
1500m to 5 km
500 to 1000 ft
800 to 1500m
200 to 500 ft
< 800m
< 200 ft
Symbols :   Thunderstorms  Fog  Heavy snow  Heavy precipitations  Wind > 20 kt
SIGMETs :     Misc.  Thunderstorms  Icing  Turbulence  Mountain Waves  Volcanic Ashes







- Airport Elevation : 788 ft
- IATA code : DCM
- Download approach charts


LFCK - Castres-Mazamet

CURRENT METAR :
  • 180930Z AUTO 12022G32KT CAVOK 11/03 Q1014 NOSIG

EXPIRED METARs :
  • 180900Z AUTO 11024KT CAVOK 11/03 Q1014 BECMG 11026G36KT
  • 180830Z AUTO 11024KT CAVOK 10/04 Q1014 BECMG 11026G36KT
  • 180800Z AUTO 11026G40KT CAVOK 10/03 Q1013 NOSIG
  • 180730Z AUTO 10028KT CAVOK 10/03 Q1013 BECMG 11025G35KT
  • 180700Z AUTO 11027KT 9999 FEW035 OVC130 09/03 Q1013 BECMG 11025G35KT

TAF TAF LFCK
Valid from the 18 at 09:00 until the 18 at 18:00 UTC


180800Z 1809/1818 11026G36KT CAVOK
No reported NOTAMs for that airfield.
1 SIGMET reported for the Bordeaux FIR (LFBB) :
 
Severe turbulence
LFBB SIGMET 1 VALID 180900/181200 LFPW
LFBB BORDEAUX FIR/UIR SEV TURB FCST WI N4315 E00100 - N4345 E00100 - N4330 E00200 - N4400 E00215 - N4345 E00245 - N4300 E00230 - N4315 E00100 SFC/FL040 STNR NC=



MET'MAP, your aeronautical weather chart ! - Copyright ORBIFLY December 2007 - Disclaimer

ORBIFLY MET'MAP TEAM :

Programming & Development : Alexandra Zaïnal
Concept & Development : Baudouin d'Aumeries
Co-Development & Prog : Marc-Olivier Méhu
Technical & hardware support : Manuel Goepfert

Contact : metmap@orbifly.com




SOURCES & CREDITS :

   NOAA